Nearby METAR Reports

 

KSFB - Sanford/Orlando, Florida, USA
Distance from station: E 8mi, 12km
Actualización: Mon 09/25/17 3:53am EDT
Despejado
Despejado
 Viento del ONO
Viento: ONO 5 mph , 7 km/h
Temperatura: 73°F , 23°C
Rocío: 72°F , 22°C
Humedad: 94%
Barómetro: 29.87 inHg , 1011.5 hPa
Clouds: Despejado
Visibility: 10 miles , 16 km
2017/09/25 07:53 KSFB 250753Z AUTO 30004KT 10SM CLR 23/22 A2987 RMK AO2 SLP112 T02330222
KORL - Orlando, Florida, USA
Distance from station: S 15mi, 24km
Actualización: Mon 09/25/17 3:53am EDT
Despejado
Despejado
 Viento del NNO
Viento: NNO 5 mph , 7 km/h
Temperatura: 75°F , 24°C
Rocío: 73°F , 23°C
Humedad: 94%
Barómetro: 29.87 inHg , 1011.5 hPa
Clouds: Despejado
Visibility: 10 miles , 16 km
2017/09/25 07:53 KORL 250753Z AUTO 33004KT 10SM CLR 24/23 A2987 RMK AO2 SLP117 T02440233
 
KDED - Deland, Florida, USA
Distance from station: N 21mi, 34km
Actualización: Mon 09/25/17 3:55am EDT
Despejado
Despejado
 Viento del ONO
Viento: ONO 5 mph , 7 km/h
Temperatura: 73°F , 23°C
Rocío: 72°F , 22°C
Humedad: 94%
Barómetro: 29.87 inHg , 1011.5 hPa
Clouds: Despejado
Visibility: 10 miles , 16 km
2017/09/25 07:55 KDED 250755Z AUTO 30004KT 10SM CLR 23/22 A2987 RMK AO2
KMCO - Orlando, Florida, USA
Distance from station: S 24mi, 39km
Actualización: Mon 09/25/17 3:53am EDT
Despejado
Despejado
 Viento del NO
Viento: NO 6 mph , 9 km/h
Temperatura: 73°F , 23°C
Rocío: 73°F , 23°C
Humedad: 100%
Barómetro: 29.87 inHg , 1011.5 hPa
Clouds: Despejado
Visibility: 10 miles , 16 km
2017/09/25 07:53 KMCO 250753Z 31005KT 10SM CLR 23/23 A2987 RMK AO2 SLP114 T02330233 $
 
KLEE - Leesburg, Florida, USA
Distance from station: O 29mi, 47km
Actualización: Mon 09/25/17 3:53am EDT
Despejado
Despejado
 Viento del N
Viento: N 5 mph , 7 km/h
Temperatura: 75°F , 24°C
Rocío: 73°F , 23°C
Humedad: 94%
Barómetro: 29.89 inHg , 1012.2 hPa
Clouds: Despejado
Visibility: 10 miles , 16 km
2017/09/25 07:53 KLEE 250753Z AUTO 36004KT 10SM CLR 24/23 A2989 RMK AO2 SLP120 T02390233
KEVB - New Smyrna Beach, Florida, USA
Distance from station: NE 31mi, 49km
Actualización: Sun 09/24/17 9:47pm EDT
NOT Current
Parcialmente nuboso
Parcialmente nuboso
 Viento del NNE
Viento: NNE 13 mph , 20 km/h
Temperatura: 81°F , 27°C
Índice de calor: 86°F , 30°C
Rocío: 73°F , 23°C
Humedad: 79%
Barómetro: 29.91 inHg , 1012.9 hPa
Clouds: Parcialmente nuboso
Visibility: 10 miles , 16 km
Cloud details: Parcialmente nuboso 1700 ft
2017/09/25 01:47 KEVB 250147Z 02011KT 10SM SCT017 27/23 A2991 RMK LAST
 
KDAB - Daytona Beach, Florida, USA
Distance from station: NNE 33mi, 53km
Actualización: Mon 09/25/17 3:53am EDT
Few Clouds
Few Clouds
 Viento del ONO
Viento: ONO 6 mph , 9 km/h
Temperatura: 73°F , 23°C
Rocío: 72°F , 22°C
Humedad: 94%
Barómetro: 29.86 inHg , 1011.2 hPa
Clouds: Few Clouds
Visibility: 9 miles , 14 km
Cloud details: Few Clouds 2300 ft
2017/09/25 07:53 KDAB 250753Z 30005KT 9SM FEW023 23/22 A2986 RMK AO2 SLP111 T02280222 $
KISM - Kissimmee/Orland, Florida, USA
Distance from station: S 34mi, 55km
Actualización: Mon 09/25/17 3:56am EDT
Despejado
Despejado
 Viento del N
Viento: N 3 mph , 6 km/h
Temperatura: 75°F , 24°C
Rocío: 73°F , 23°C
Humedad: 94%
Barómetro: 29.88 inHg , 1011.9 hPa
Clouds: Despejado
Visibility: 10 miles , 16 km
2017/09/25 07:56 KISM 250756Z AUTO 36003KT 10SM CLR 24/23 A2988 RMK AO2 SLP120 T02440233
 
KTIX - Titusville, Florida, USA
Distance from station: ESE 38mi, 61km
Actualización: Sun 09/24/17 8:47pm EDT
NOT Current
Few Clouds
Few Clouds
 Viento del NNE
Viento: NNE 6 mph , 9 km/h
Temperatura: 84°F , 29°C
Índice de calor: 89°F , 32°C
Rocío: 72°F , 22°C
Humedad: 66%
Barómetro: 29.89 inHg , 1012.2 hPa
Clouds: Few Clouds
Visibility: 7 miles , 11 km
Cloud details: Few Clouds 3000 ft
2017/09/25 00:47 KTIX 250047Z 03005KT 7SM FEW030 29/22 A2989 RMK LAST
KOMN - Ormond Beach Vor, Florida, USA
Distance from station: NNE 39mi, 63km
Actualización: Sun 09/24/17 6:50pm EDT
NOT Current
Muy nuboso
Muy nuboso
 Viento del NNE
Viento: NNE 12 mph , 19 km/h, Racha: 21 mph , 33 km/h
Temperatura: 81°F , 27°C
Índice de calor: 86°F , 30°C
Rocío: 73°F , 23°C
Humedad: 79%
Barómetro: 29.89 inHg , 1012.2 hPa
Clouds: Muy nuboso
Visibility: 10 miles , 16 km
Cloud details: Parcialmente nuboso 1800 ft
Muy nuboso 4800 ft
2017/09/24 22:50 KOMN 242250Z 02010G18KT 10SM SCT018 BKN048 27/23 A2989 RMK LAST
 
KTTS - Nasa Shuttle Fcl, Florida, USA
Distance from station: ESE 39mi, 63km
Actualización: Mon 09/25/17 3:58am EDT
Muy nuboso
Muy nuboso
 Viento del NO
Viento: NO 5 mph , 7 km/h
Temperatura: 77°F , 25°C
Rocío: 75°F , 24°C
Humedad: 94%
Barómetro: 29.84 inHg , 1010.5 hPa
Clouds: Muy nuboso
Visibility: 10 miles , 16 km
Cloud details: Muy nuboso 2000 ft
2017/09/25 07:58 KTTS 250758Z AUTO 31004KT 10SM BKN020 25/24 A2984 RMK AO2 BKN V SCT SLP109 T02490238 VISNO RWY15 CHINO RWY15 $
KVVG - The Villages, Florida, USA
Distance from station: ONO 40mi, 64km
Actualización: Mon 09/25/17 3:50am EDT

 Viento del calm
Viento: Calma
Temperatura: 73°F , 23°C
Rocío: 73°F , 23°C
Humedad: 100%
Barómetro: 29.79 inHg , 1008.8 hPa
Visibility: 10 miles , 16 km
2017/09/25 07:50 KVVG 250750Z AUTO 00000KT 10SM 23/23 A2979 RMK A01
 
KXMR - Cape Canaveral, Florida, USA
Distance from station: ESE 51mi, 83km
Actualización: Mon 09/25/17 3:58am EDT
Despejado
Despejado
 Viento del NO
Viento: NO 8 mph , 13 km/h
Temperatura: 79°F , 26°C
Rocío: 75°F , 24°C
Humedad: 89%
Barómetro: 29.83 inHg , 1010.2 hPa
Clouds: Despejado
Visibility: 10 miles , 16 km
2017/09/25 07:58 KXMR 250758Z AUTO 32007KT 10SM CLR 26/24 A2983 RMK AO2 SLP104 T02590238 $
KGIF - Winter Haven, Florida, USA
Distance from station: SSO 55mi, 88km
Actualización: Mon 09/25/17 3:53am EDT
Despejado
Despejado
 Viento del N
Viento: N 6 mph , 9 km/h
Temperatura: 75°F , 24°C
Rocío: 73°F , 23°C
Humedad: 94%
Barómetro: 29.89 inHg , 1012.2 hPa
Clouds: Despejado
Visibility: 10 miles , 16 km
2017/09/25 07:53 KGIF 250753Z AUTO 01005KT 10SM CLR 24/23 A2989 RMK AO2 SLP117 T02390228 PNO
 
KCOF - Patrick Afb/Coco, Florida, USA
Distance from station: SE 58mi, 94km
Actualización: Mon 09/25/17 3:58am EDT
Despejado
Despejado
 Viento del NO
Viento: NO 12 mph , 19 km/h
Temperatura: 79°F , 26°C
Rocío: 77°F , 25°C
Humedad: 94%
Barómetro: 29.84 inHg , 1010.5 hPa
Clouds: Despejado
Visibility: 10 miles , 16 km
2017/09/25 07:58 KCOF 250758Z AUTO 32010KT 10SM CLR 26/25 A2984 RMK AO2 SLP109 T02630248
KINF - Inverness, Florida, USA
Distance from station: O 59mi, 95km
Actualización: Mon 09/25/17 3:55am EDT
Despejado
Despejado
 Viento del calm
Viento: Calma
Temperatura: 72°F , 22°C
Rocío: 72°F , 22°C
Humedad: 100%
Barómetro: 29.90 inHg , 1012.5 hPa
Clouds: Despejado
Visibility: 7 miles , 11 km
2017/09/25 07:55 KINF 250755Z AUTO 00000KT 7SM CLR 22/22 A2990 RMK AO2
 
KOCF - Ocala Muni, Florida, USA
Distance from station: ONO 60mi, 96km
Actualización: Mon 09/25/17 3:51am EDT
Despejado
Despejado
 Viento del calm
Viento: Calma
Temperatura: 72°F , 22°C
Rocío: 70°F , 21°C
Humedad: 94%
Barómetro: 29.90 inHg , 1012.5 hPa
Clouds: Despejado
Visibility: 9 miles , 14 km
2017/09/25 07:51 KOCF 250751Z AUTO 00000KT 9SM CLR 22/21 A2990 RMK AO2 SLP125 T02170211 $
KZPH - Zephyrhills, Florida, USA
Distance from station: SO 61mi, 99km
Actualización: Mon 09/25/17 4:15am EDT
Cubierto
Cubierto
 Viento del calm
Viento: Calma
Temperatura: 75°F , 24°C
Rocío: 73°F , 23°C
Humedad: 94%
Barómetro: 29.89 inHg , 1012.2 hPa
Clouds: Cubierto
Visibility: 10 miles , 16 km
Cloud details: Cubierto 7000 ft
2017/09/25 08:15 KZPH 250815Z AUTO 00000KT 10SM OVC070 24/23 A2989 RMK AO2 T02370230
 
KMLB - Melbourne, Florida, USA
Distance from station: SE 62mi, 100km
Actualización: Mon 09/25/17 3:53am EDT
Cubierto
Cubierto
 Viento del ONO
Viento: ONO 6 mph , 9 km/h
Temperatura: 79°F , 26°C
Rocío: 75°F , 24°C
Humedad: 89%
Barómetro: 29.85 inHg , 1010.8 hPa
Clouds: Cubierto
Visibility: 9 miles , 14 km
Cloud details: Few Clouds 1600 ft
Cubierto 2600 ft
2017/09/25 07:53 KMLB 250753Z AUTO 30005KT 9SM FEW016 OVC026 26/24 A2985 RMK AO2 SLP106 T02560244
KBOW - Bartow Municipal, Florida, USA
Distance from station: SSO 63mi, 102km
Actualización: Sun 09/24/17 4:55pm EDT
NOT Current

 
2017/09/24 20:55 KBOW 242055Z E07009KT 10SM SKC